sensor_id;sensor_type;location;lat;lon;timestamp;temperature;humidity
61841;DHT22;47773;53.174;6.614;2023-12-20T00:01:06;7.00;99.90
61841;DHT22;47773;53.174;6.614;2023-12-20T00:03:31;7.00;99.90
61841;DHT22;47773;53.174;6.614;2023-12-20T00:05:57;7.00;99.90
61841;DHT22;47773;53.174;6.614;2023-12-20T00:08:23;6.90;99.90
61841;DHT22;47773;53.174;6.614;2023-12-20T00:10:48;7.00;99.90
61841;DHT22;47773;53.174;6.614;2023-12-20T00:13:14;7.00;99.90
61841;DHT22;47773;53.174;6.614;2023-12-20T00:15:40;6.90;99.90
61841;DHT22;47773;53.174;6.614;2023-12-20T00:18:05;6.90;99.90
61841;DHT22;47773;53.174;6.614;2023-12-20T00:20:31;6.90;99.90
61841;DHT22;47773;53.174;6.614;2023-12-20T00:22:57;6.80;99.90
61841;DHT22;47773;53.174;6.614;2023-12-20T00:25:24;6.80;99.90
61841;DHT22;47773;53.174;6.614;2023-12-20T00:27:50;6.80;99.90
61841;DHT22;47773;53.174;6.614;2023-12-20T00:30:16;6.80;99.90
61841;DHT22;47773;53.174;6.614;2023-12-20T00:32:42;6.80;99.90
61841;DHT22;47773;53.174;6.614;2023-12-20T00:35:15;6.70;99.90
61841;DHT22;47773;53.174;6.614;2023-12-20T00:37:42;6.70;99.90
61841;DHT22;47773;53.174;6.614;2023-12-20T00:40:08;6.70;99.90
61841;DHT22;47773;53.174;6.614;2023-12-20T00:42:34;6.70;99.90
61841;DHT22;47773;53.174;6.614;2023-12-20T00:45:01;6.70;99.90
61841;DHT22;47773;53.174;6.614;2023-12-20T00:47:27;6.70;99.90
61841;DHT22;47773;53.174;6.614;2023-12-20T00:49:53;6.70;99.90
61841;DHT22;47773;53.174;6.614;2023-12-20T00:52:18;6.70;99.90
61841;DHT22;47773;53.174;6.614;2023-12-20T00:54:44;6.70;99.90
61841;DHT22;47773;53.174;6.614;2023-12-20T00:57:10;6.70;99.90
61841;DHT22;47773;53.174;6.614;2023-12-20T00:59:36;6.70;99.90
61841;DHT22;47773;53.174;6.614;2023-12-20T01:02:02;6.70;99.90
61841;DHT22;47773;53.174;6.614;2023-12-20T01:04:28;6.70;99.90
61841;DHT22;47773;53.174;6.614;2023-12-20T01:06:53;6.70;99.90
61841;DHT22;47773;53.174;6.614;2023-12-20T01:09:19;6.70;99.90
61841;DHT22;47773;53.174;6.614;2023-12-20T01:11:45;6.70;99.90
61841;DHT22;47773;53.174;6.614;2023-12-20T01:14:13;6.70;99.90
61841;DHT22;47773;53.174;6.614;2023-12-20T01:16:39;6.80;99.90
61841;DHT22;47773;53.174;6.614;2023-12-20T01:19:04;6.80;99.90
61841;DHT22;47773;53.174;6.614;2023-12-20T01:21:30;6.80;99.90
61841;DHT22;47773;53.174;6.614;2023-12-20T01:23:55;6.80;99.90
61841;DHT22;47773;53.174;6.614;2023-12-20T01:26:21;6.70;99.90
61841;DHT22;47773;53.174;6.614;2023-12-20T01:28:47;6.80;99.90
61841;DHT22;47773;53.174;6.614;2023-12-20T01:31:13;6.70;99.90
61841;DHT22;47773;53.174;6.614;2023-12-20T01:33:38;6.70;99.90
61841;DHT22;47773;53.174;6.614;2023-12-20T01:36:04;6.70;99.90
61841;DHT22;47773;53.174;6.614;2023-12-20T01:38:30;6.80;99.90
61841;DHT22;47773;53.174;6.614;2023-12-20T01:40:55;6.80;99.90
61841;DHT22;47773;53.174;6.614;2023-12-20T01:43:21;6.90;99.90
61841;DHT22;47773;53.174;6.614;2023-12-20T01:45:47;7.00;99.90
61841;DHT22;47773;53.174;6.614;2023-12-20T01:48:15;7.00;99.90
61841;DHT22;47773;53.174;6.614;2023-12-20T01:50:41;7.00;99.90
61841;DHT22;47773;53.174;6.614;2023-12-20T01:53:10;7.10;99.90
61841;DHT22;47773;53.174;6.614;2023-12-20T01:55:39;7.10;99.90
61841;DHT22;47773;53.174;6.614;2023-12-20T01:58:06;7.10;99.90
61841;DHT22;47773;53.174;6.614;2023-12-20T02:00:33;7.10;99.90
61841;DHT22;47773;53.174;6.614;2023-12-20T02:03:01;7.10;99.90
61841;DHT22;47773;53.174;6.614;2023-12-20T02:05:27;7.10;99.90
61841;DHT22;47773;53.174;6.614;2023-12-20T02:07:54;7.10;99.90
61841;DHT22;47773;53.174;6.614;2023-12-20T02:10:19;7.10;99.90
61841;DHT22;47773;53.174;6.614;2023-12-20T02:12:45;7.10;99.90
61841;DHT22;47773;53.174;6.614;2023-12-20T02:15:11;7.10;99.90
61841;DHT22;47773;53.174;6.614;2023-12-20T02:17:38;7.10;99.90
61841;DHT22;47773;53.174;6.614;2023-12-20T02:20:05;7.00;99.90
61841;DHT22;47773;53.174;6.614;2023-12-20T02:22:31;7.10;99.90
61841;DHT22;47773;53.174;6.614;2023-12-20T02:24:57;7.00;99.90
61841;DHT22;47773;53.174;6.614;2023-12-20T02:27:23;7.00;99.90
61841;DHT22;47773;53.174;6.614;2023-12-20T02:29:49;7.00;99.90
61841;DHT22;47773;53.174;6.614;2023-12-20T02:32:17;7.00;99.90
61841;DHT22;47773;53.174;6.614;2023-12-20T02:34:43;7.00;99.90
61841;DHT22;47773;53.174;6.614;2023-12-20T02:37:09;7.00;99.90
61841;DHT22;47773;53.174;6.614;2023-12-20T02:39:34;7.00;99.90
61841;DHT22;47773;53.174;6.614;2023-12-20T02:42:00;7.00;99.90
61841;DHT22;47773;53.174;6.614;2023-12-20T02:44:25;7.00;99.90
61841;DHT22;47773;53.174;6.614;2023-12-20T02:46:51;7.10;99.90
61841;DHT22;47773;53.174;6.614;2023-12-20T02:49:17;7.10;99.90
61841;DHT22;47773;53.174;6.614;2023-12-20T02:51:42;7.10;99.90
61841;DHT22;47773;53.174;6.614;2023-12-20T02:54:08;7.10;99.90
61841;DHT22;47773;53.174;6.614;2023-12-20T02:56:34;7.10;99.90
61841;DHT22;47773;53.174;6.614;2023-12-20T02:58:59;7.10;99.90
61841;DHT22;47773;53.174;6.614;2023-12-20T03:01:26;7.20;99.90
61841;DHT22;47773;53.174;6.614;2023-12-20T03:03:51;7.20;99.90
61841;DHT22;47773;53.174;6.614;2023-12-20T03:06:18;7.20;99.90
61841;DHT22;47773;53.174;6.614;2023-12-20T03:08:44;7.20;99.90
61841;DHT22;47773;53.174;6.614;2023-12-20T03:11:10;7.20;99.90
61841;DHT22;47773;53.174;6.614;2023-12-20T03:13:35;7.20;99.90
61841;DHT22;47773;53.174;6.614;2023-12-20T03:16:01;7.20;99.90
61841;DHT22;47773;53.174;6.614;2023-12-20T03:18:33;7.20;99.90
61841;DHT22;47773;53.174;6.614;2023-12-20T03:20:58;7.20;99.90
61841;DHT22;47773;53.174;6.614;2023-12-20T03:23:24;7.30;99.90
61841;DHT22;47773;53.174;6.614;2023-12-20T03:25:49;7.20;99.90
61841;DHT22;47773;53.174;6.614;2023-12-20T03:28:15;7.30;99.90
61841;DHT22;47773;53.174;6.614;2023-12-20T03:30:41;7.40;99.90
61841;DHT22;47773;53.174;6.614;2023-12-20T03:33:07;7.40;99.90
61841;DHT22;47773;53.174;6.614;2023-12-20T03:35:33;7.40;99.90
61841;DHT22;47773;53.174;6.614;2023-12-20T03:37:58;7.50;99.90
61841;DHT22;47773;53.174;6.614;2023-12-20T03:40:25;7.50;99.90
61841;DHT22;47773;53.174;6.614;2023-12-20T03:42:51;7.50;99.90
61841;DHT22;47773;53.174;6.614;2023-12-20T03:45:17;7.50;99.90
61841;DHT22;47773;53.174;6.614;2023-12-20T03:47:42;7.50;99.90
61841;DHT22;47773;53.174;6.614;2023-12-20T03:50:08;7.40;99.90
61841;DHT22;47773;53.174;6.614;2023-12-20T03:52:34;7.40;99.90
61841;DHT22;47773;53.174;6.614;2023-12-20T03:54:59;7.40;99.90
61841;DHT22;47773;53.174;6.614;2023-12-20T03:57:25;7.30;99.90
61841;DHT22;47773;53.174;6.614;2023-12-20T03:59:50;7.40;99.90
61841;DHT22;47773;53.174;6.614;2023-12-20T04:02:16;7.40;99.90
61841;DHT22;47773;53.174;6.614;2023-12-20T04:04:43;7.40;99.90
61841;DHT22;47773;53.174;6.614;2023-12-20T04:07:09;7.40;99.90
61841;DHT22;47773;53.174;6.614;2023-12-20T04:09:34;7.50;99.90
61841;DHT22;47773;53.174;6.614;2023-12-20T04:12:00;7.50;99.90
61841;DHT22;47773;53.174;6.614;2023-12-20T04:14:26;7.50;99.90
61841;DHT22;47773;53.174;6.614;2023-12-20T04:16:52;7.50;99.90
61841;DHT22;47773;53.174;6.614;2023-12-20T04:19:18;7.50;99.90
61841;DHT22;47773;53.174;6.614;2023-12-20T04:21:43;7.50;99.90
61841;DHT22;47773;53.174;6.614;2023-12-20T04:24:09;7.50;99.90
61841;DHT22;47773;53.174;6.614;2023-12-20T04:26:34;7.60;99.90
61841;DHT22;47773;53.174;6.614;2023-12-20T04:29:00;7.60;99.90
61841;DHT22;47773;53.174;6.614;2023-12-20T04:31:26;7.60;99.90
61841;DHT22;47773;53.174;6.614;2023-12-20T04:33:51;7.60;99.90
61841;DHT22;47773;53.174;6.614;2023-12-20T04:36:17;7.70;99.90
61841;DHT22;47773;53.174;6.614;2023-12-20T04:38:43;7.70;99.90
61841;DHT22;47773;53.174;6.614;2023-12-20T04:41:08;7.70;99.90
61841;DHT22;47773;53.174;6.614;2023-12-20T04:43:34;7.70;99.90
61841;DHT22;47773;53.174;6.614;2023-12-20T04:45:59;7.70;99.90
61841;DHT22;47773;53.174;6.614;2023-12-20T04:48:25;7.70;99.90
61841;DHT22;47773;53.174;6.614;2023-12-20T04:50:51;7.80;99.90
61841;DHT22;47773;53.174;6.614;2023-12-20T04:53:16;7.80;99.90
61841;DHT22;47773;53.174;6.614;2023-12-20T04:55:42;7.80;99.90
61841;DHT22;47773;53.174;6.614;2023-12-20T04:58:07;7.80;99.90
61841;DHT22;47773;53.174;6.614;2023-12-20T05:00:33;7.90;99.90
61841;DHT22;47773;53.174;6.614;2023-12-20T05:02:59;7.90;99.90
61841;DHT22;47773;53.174;6.614;2023-12-20T05:05:24;7.90;99.90
61841;DHT22;47773;53.174;6.614;2023-12-20T05:07:50;7.90;99.90
61841;DHT22;47773;53.174;6.614;2023-12-20T05:10:16;7.80;99.90
61841;DHT22;47773;53.174;6.614;2023-12-20T05:12:41;7.90;99.90
61841;DHT22;47773;53.174;6.614;2023-12-20T05:15:08;7.90;99.90
61841;DHT22;47773;53.174;6.614;2023-12-20T05:17:34;7.90;99.90
61841;DHT22;47773;53.174;6.614;2023-12-20T05:20:00;8.00;99.90
61841;DHT22;47773;53.174;6.614;2023-12-20T05:22:26;8.00;99.90
61841;DHT22;47773;53.174;6.614;2023-12-20T05:24:53;8.00;99.90
61841;DHT22;47773;53.174;6.614;2023-12-20T05:27:18;8.00;99.90
61841;DHT22;47773;53.174;6.614;2023-12-20T05:29:44;8.00;99.90
61841;DHT22;47773;53.174;6.614;2023-12-20T05:32:10;8.00;99.90
61841;DHT22;47773;53.174;6.614;2023-12-20T05:34:35;8.00;99.90
61841;DHT22;47773;53.174;6.614;2023-12-20T05:37:02;8.00;99.90
61841;DHT22;47773;53.174;6.614;2023-12-20T05:39:27;8.00;99.90
61841;DHT22;47773;53.174;6.614;2023-12-20T05:41:53;8.00;99.90
61841;DHT22;47773;53.174;6.614;2023-12-20T05:44:19;8.00;99.90
61841;DHT22;47773;53.174;6.614;2023-12-20T05:46:44;8.10;99.90
61841;DHT22;47773;53.174;6.614;2023-12-20T05:49:10;8.10;99.90
61841;DHT22;47773;53.174;6.614;2023-12-20T05:51:36;8.00;99.90
61841;DHT22;47773;53.174;6.614;2023-12-20T05:54:02;8.10;99.90
61841;DHT22;47773;53.174;6.614;2023-12-20T05:56:27;8.10;99.90
61841;DHT22;47773;53.174;6.614;2023-12-20T05:58:53;8.10;99.90
61841;DHT22;47773;53.174;6.614;2023-12-20T06:01:18;8.10;99.90
61841;DHT22;47773;53.174;6.614;2023-12-20T06:03:44;8.00;99.90
61841;DHT22;47773;53.174;6.614;2023-12-20T06:06:11;8.10;99.90
61841;DHT22;47773;53.174;6.614;2023-12-20T06:08:38;8.10;99.90
61841;DHT22;47773;53.174;6.614;2023-12-20T06:11:04;8.10;99.90
61841;DHT22;47773;53.174;6.614;2023-12-20T06:13:31;8.10;99.90
61841;DHT22;47773;53.174;6.614;2023-12-20T06:15:56;8.10;99.90
61841;DHT22;47773;53.174;6.614;2023-12-20T06:18:22;8.10;99.90
61841;DHT22;47773;53.174;6.614;2023-12-20T06:20:48;8.10;99.90
61841;DHT22;47773;53.174;6.614;2023-12-20T06:23:14;8.10;99.90
61841;DHT22;47773;53.174;6.614;2023-12-20T06:25:39;8.10;99.90
61841;DHT22;47773;53.174;6.614;2023-12-20T06:28:05;8.10;99.90
61841;DHT22;47773;53.174;6.614;2023-12-20T06:30:32;8.10;99.90
61841;DHT22;47773;53.174;6.614;2023-12-20T06:32:58;8.10;99.90
61841;DHT22;47773;53.174;6.614;2023-12-20T06:35:24;8.20;99.90
61841;DHT22;47773;53.174;6.614;2023-12-20T06:37:50;8.20;99.90
61841;DHT22;47773;53.174;6.614;2023-12-20T06:40:16;8.20;99.90
61841;DHT22;47773;53.174;6.614;2023-12-20T06:42:41;8.20;99.90
61841;DHT22;47773;53.174;6.614;2023-12-20T06:45:07;8.20;99.90
61841;DHT22;47773;53.174;6.614;2023-12-20T06:47:33;8.20;99.90
61841;DHT22;47773;53.174;6.614;2023-12-20T06:49:59;8.20;99.90
61841;DHT22;47773;53.174;6.614;2023-12-20T06:52:25;8.20;99.90
61841;DHT22;47773;53.174;6.614;2023-12-20T06:54:50;8.30;99.90
61841;DHT22;47773;53.174;6.614;2023-12-20T06:57:16;8.30;99.90
61841;DHT22;47773;53.174;6.614;2023-12-20T06:59:42;8.30;99.90
61841;DHT22;47773;53.174;6.614;2023-12-20T07:02:08;8.30;99.90
61841;DHT22;47773;53.174;6.614;2023-12-20T07:04:38;8.40;99.90
61841;DHT22;47773;53.174;6.614;2023-12-20T07:07:04;8.40;99.90
61841;DHT22;47773;53.174;6.614;2023-12-20T07:09:29;8.40;99.90
61841;DHT22;47773;53.174;6.614;2023-12-20T07:11:55;8.40;99.90
61841;DHT22;47773;53.174;6.614;2023-12-20T07:14:21;8.30;99.90
61841;DHT22;47773;53.174;6.614;2023-12-20T07:16:47;8.40;99.90
61841;DHT22;47773;53.174;6.614;2023-12-20T07:19:12;8.40;99.90
61841;DHT22;47773;53.174;6.614;2023-12-20T07:21:38;8.40;99.90
61841;DHT22;47773;53.174;6.614;2023-12-20T07:24:04;8.40;99.90
61841;DHT22;47773;53.174;6.614;2023-12-20T07:26:30;8.50;99.90
61841;DHT22;47773;53.174;6.614;2023-12-20T07:28:55;8.50;99.90
61841;DHT22;47773;53.174;6.614;2023-12-20T07:31:21;8.50;99.90
61841;DHT22;47773;53.174;6.614;2023-12-20T07:33:47;8.50;99.90
61841;DHT22;47773;53.174;6.614;2023-12-20T07:36:13;8.50;99.90
61841;DHT22;47773;53.174;6.614;2023-12-20T07:38:38;8.50;99.90
61841;DHT22;47773;53.174;6.614;2023-12-20T07:41:04;8.50;99.90
61841;DHT22;47773;53.174;6.614;2023-12-20T07:43:30;8.50;99.90
61841;DHT22;47773;53.174;6.614;2023-12-20T07:45:56;8.50;99.90
61841;DHT22;47773;53.174;6.614;2023-12-20T07:48:21;8.50;99.90
61841;DHT22;47773;53.174;6.614;2023-12-20T07:50:47;8.50;99.90
61841;DHT22;47773;53.174;6.614;2023-12-20T07:53:13;8.50;99.90
61841;DHT22;47773;53.174;6.614;2023-12-20T07:55:39;8.50;99.90
61841;DHT22;47773;53.174;6.614;2023-12-20T07:58:04;8.50;99.90
61841;DHT22;47773;53.174;6.614;2023-12-20T08:00:30;8.50;99.90
61841;DHT22;47773;53.174;6.614;2023-12-20T08:02:56;8.50;99.90
61841;DHT22;47773;53.174;6.614;2023-12-20T08:05:21;8.60;99.90
61841;DHT22;47773;53.174;6.614;2023-12-20T08:07:47;8.60;99.90
61841;DHT22;47773;53.174;6.614;2023-12-20T08:10:13;8.60;99.90
61841;DHT22;47773;53.174;6.614;2023-12-20T08:12:39;8.60;99.90
61841;DHT22;47773;53.174;6.614;2023-12-20T08:15:05;8.60;99.90
61841;DHT22;47773;53.174;6.614;2023-12-20T08:17:31;8.60;99.90
61841;DHT22;47773;53.174;6.614;2023-12-20T08:19:57;8.70;99.90
61841;DHT22;47773;53.174;6.614;2023-12-20T08:22:23;8.60;99.90
61841;DHT22;47773;53.174;6.614;2023-12-20T08:24:49;8.70;99.90
61841;DHT22;47773;53.174;6.614;2023-12-20T08:27:14;8.70;99.90
61841;DHT22;47773;53.174;6.614;2023-12-20T08:29:40;8.70;99.90
61841;DHT22;47773;53.174;6.614;2023-12-20T08:32:06;8.70;99.90
61841;DHT22;47773;53.174;6.614;2023-12-20T08:34:31;8.70;99.90
61841;DHT22;47773;53.174;6.614;2023-12-20T08:36:57;8.70;99.90
61841;DHT22;47773;53.174;6.614;2023-12-20T08:39:23;8.60;99.90
61841;DHT22;47773;53.174;6.614;2023-12-20T08:41:48;8.70;99.90
61841;DHT22;47773;53.174;6.614;2023-12-20T08:44:14;8.70;99.90
61841;DHT22;47773;53.174;6.614;2023-12-20T08:46:40;8.70;99.90
61841;DHT22;47773;53.174;6.614;2023-12-20T08:49:05;8.70;99.90
61841;DHT22;47773;53.174;6.614;2023-12-20T08:51:31;8.80;99.90
61841;DHT22;47773;53.174;6.614;2023-12-20T08:53:56;8.80;99.90
61841;DHT22;47773;53.174;6.614;2023-12-20T08:56:22;8.60;99.90
61841;DHT22;47773;53.174;6.614;2023-12-20T08:58:48;8.30;99.90
61841;DHT22;47773;53.174;6.614;2023-12-20T09:01:14;8.00;99.90
61841;DHT22;47773;53.174;6.614;2023-12-20T09:03:40;7.80;99.90
61841;DHT22;47773;53.174;6.614;2023-12-20T09:06:06;7.60;99.90
61841;DHT22;47773;53.174;6.614;2023-12-20T09:08:32;7.50;99.90
61841;DHT22;47773;53.174;6.614;2023-12-20T09:10:58;7.40;99.90
61841;DHT22;47773;53.174;6.614;2023-12-20T09:13:24;7.40;99.90
61841;DHT22;47773;53.174;6.614;2023-12-20T09:15:55;7.40;99.90
61841;DHT22;47773;53.174;6.614;2023-12-20T09:18:21;7.30;99.90
61841;DHT22;47773;53.174;6.614;2023-12-20T09:20:46;7.20;99.90
61841;DHT22;47773;53.174;6.614;2023-12-20T09:23:12;7.10;99.90
61841;DHT22;47773;53.174;6.614;2023-12-20T09:25:38;7.10;99.90
61841;DHT22;47773;53.174;6.614;2023-12-20T09:28:04;7.10;99.90
61841;DHT22;47773;53.174;6.614;2023-12-20T09:30:29;7.10;99.90
61841;DHT22;47773;53.174;6.614;2023-12-20T09:32:55;7.00;99.90
61841;DHT22;47773;53.174;6.614;2023-12-20T09:35:21;7.10;99.90
61841;DHT22;47773;53.174;6.614;2023-12-20T09:37:47;7.10;99.90
61841;DHT22;47773;53.174;6.614;2023-12-20T09:40:13;7.00;99.90
61841;DHT22;47773;53.174;6.614;2023-12-20T09:42:51;7.10;99.90
61841;DHT22;47773;53.174;6.614;2023-12-20T09:45:21;7.10;99.90
61841;DHT22;47773;53.174;6.614;2023-12-20T09:47:49;7.10;99.90
61841;DHT22;47773;53.174;6.614;2023-12-20T09:50:16;7.10;99.90
61841;DHT22;47773;53.174;6.614;2023-12-20T09:52:43;7.10;99.90
61841;DHT22;47773;53.174;6.614;2023-12-20T09:55:10;7.20;99.90
61841;DHT22;47773;53.174;6.614;2023-12-20T09:57:36;7.10;99.90
61841;DHT22;47773;53.174;6.614;2023-12-20T10:00:02;7.10;99.90
61841;DHT22;47773;53.174;6.614;2023-12-20T10:02:29;7.10;99.90
61841;DHT22;47773;53.174;6.614;2023-12-20T10:04:57;7.10;99.90
61841;DHT22;47773;53.174;6.614;2023-12-20T10:07:23;7.20;99.90
61841;DHT22;47773;53.174;6.614;2023-12-20T10:09:51;7.10;99.90
61841;DHT22;47773;53.174;6.614;2023-12-20T10:12:19;7.10;99.90
61841;DHT22;47773;53.174;6.614;2023-12-20T10:14:45;7.20;99.90
61841;DHT22;47773;53.174;6.614;2023-12-20T10:17:10;7.20;99.90
61841;DHT22;47773;53.174;6.614;2023-12-20T10:19:37;7.30;99.90
61841;DHT22;47773;53.174;6.614;2023-12-20T10:22:04;7.30;99.90
61841;DHT22;47773;53.174;6.614;2023-12-20T10:24:30;7.30;99.90
61841;DHT22;47773;53.174;6.614;2023-12-20T10:27:03;7.30;99.90
61841;DHT22;47773;53.174;6.614;2023-12-20T10:29:36;7.40;99.90
61841;DHT22;47773;53.174;6.614;2023-12-20T10:32:27;7.40;99.90
61841;DHT22;47773;53.174;6.614;2023-12-20T10:34:54;7.40;99.90
61841;DHT22;47773;53.174;6.614;2023-12-20T10:37:20;7.40;99.90
61841;DHT22;47773;53.174;6.614;2023-12-20T10:39:51;7.40;99.90
61841;DHT22;47773;53.174;6.614;2023-12-20T10:42:21;7.40;99.90
61841;DHT22;47773;53.174;6.614;2023-12-20T10:44:49;7.50;99.90
61841;DHT22;47773;53.174;6.614;2023-12-20T10:47:15;7.50;99.90
61841;DHT22;47773;53.174;6.614;2023-12-20T10:49:42;7.50;99.90
61841;DHT22;47773;53.174;6.614;2023-12-20T10:52:09;7.50;99.90
61841;DHT22;47773;53.174;6.614;2023-12-20T10:54:36;7.60;99.90
61841;DHT22;47773;53.174;6.614;2023-12-20T10:57:05;7.50;99.90
61841;DHT22;47773;53.174;6.614;2023-12-20T10:59:33;7.50;99.90
61841;DHT22;47773;53.174;6.614;2023-12-20T11:01:59;7.50;99.90
61841;DHT22;47773;53.174;6.614;2023-12-20T11:04:50;7.50;99.90
61841;DHT22;47773;53.174;6.614;2023-12-20T11:07:28;7.50;99.90
61841;DHT22;47773;53.174;6.614;2023-12-20T11:10:26;7.40;99.90
61841;DHT22;47773;53.174;6.614;2023-12-20T11:12:57;7.50;99.90
61841;DHT22;47773;53.174;6.614;2023-12-20T11:15:24;7.60;99.90
61841;DHT22;47773;53.174;6.614;2023-12-20T11:17:56;7.60;99.90
61841;DHT22;47773;53.174;6.614;2023-12-20T11:20:36;7.60;99.90
61841;DHT22;47773;53.174;6.614;2023-12-20T11:23:02;7.60;99.90
61841;DHT22;47773;53.174;6.614;2023-12-20T11:25:28;7.70;99.90
61841;DHT22;47773;53.174;6.614;2023-12-20T11:28:12;7.70;99.90
61841;DHT22;47773;53.174;6.614;2023-12-20T11:30:46;7.80;99.90
61841;DHT22;47773;53.174;6.614;2023-12-20T11:33:14;7.80;99.90
61841;DHT22;47773;53.174;6.614;2023-12-20T11:35:40;7.80;99.90
61841;DHT22;47773;53.174;6.614;2023-12-20T11:38:10;7.80;99.90
61841;DHT22;47773;53.174;6.614;2023-12-20T11:40:36;7.80;99.90
61841;DHT22;47773;53.174;6.614;2023-12-20T11:43:02;7.80;99.90
61841;DHT22;47773;53.174;6.614;2023-12-20T11:45:28;7.90;99.90
61841;DHT22;47773;53.174;6.614;2023-12-20T11:47:54;8.00;99.90
61841;DHT22;47773;53.174;6.614;2023-12-20T11:50:23;8.00;99.90
61841;DHT22;47773;53.174;6.614;2023-12-20T11:52:50;8.10;99.90
61841;DHT22;47773;53.174;6.614;2023-12-20T11:55:17;8.10;99.90
61841;DHT22;47773;53.174;6.614;2023-12-20T11:57:43;8.10;99.90
61841;DHT22;47773;53.174;6.614;2023-12-20T12:00:09;8.10;99.90
61841;DHT22;47773;53.174;6.614;2023-12-20T12:02:35;8.20;99.90
61841;DHT22;47773;53.174;6.614;2023-12-20T12:05:01;8.20;99.90
61841;DHT22;47773;53.174;6.614;2023-12-20T12:07:27;8.20;99.90
61841;DHT22;47773;53.174;6.614;2023-12-20T12:09:52;8.20;99.90
61841;DHT22;47773;53.174;6.614;2023-12-20T12:12:19;8.20;99.90
61841;DHT22;47773;53.174;6.614;2023-12-20T12:14:45;8.30;99.90
61841;DHT22;47773;53.174;6.614;2023-12-20T12:17:14;8.30;99.90
61841;DHT22;47773;53.174;6.614;2023-12-20T12:19:41;8.30;99.90
61841;DHT22;47773;53.174;6.614;2023-12-20T12:22:10;8.30;99.90
61841;DHT22;47773;53.174;6.614;2023-12-20T12:24:46;8.30;99.90
61841;DHT22;47773;53.174;6.614;2023-12-20T12:27:15;8.30;99.90
61841;DHT22;47773;53.174;6.614;2023-12-20T12:30:03;8.30;99.90
61841;DHT22;47773;53.174;6.614;2023-12-20T12:32:29;8.30;99.90
61841;DHT22;47773;53.174;6.614;2023-12-20T12:34:55;8.30;99.90
61841;DHT22;47773;53.174;6.614;2023-12-20T12:37:22;8.30;99.90
61841;DHT22;47773;53.174;6.614;2023-12-20T12:39:49;8.30;99.90
61841;DHT22;47773;53.174;6.614;2023-12-20T12:42:15;8.30;99.90
61841;DHT22;47773;53.174;6.614;2023-12-20T12:44:40;8.30;99.90
61841;DHT22;47773;53.174;6.614;2023-12-20T12:47:06;8.30;99.90
61841;DHT22;47773;53.174;6.614;2023-12-20T12:49:33;8.30;99.90
61841;DHT22;47773;53.174;6.614;2023-12-20T12:51:59;8.30;99.90
61841;DHT22;47773;53.174;6.614;2023-12-20T12:54:24;8.30;99.90
61841;DHT22;47773;53.174;6.614;2023-12-20T12:56:50;8.40;99.90
61841;DHT22;47773;53.174;6.614;2023-12-20T12:59:18;8.40;99.90
61841;DHT22;47773;53.174;6.614;2023-12-20T13:01:44;8.50;99.90
61841;DHT22;47773;53.174;6.614;2023-12-20T13:04:09;8.50;99.90
61841;DHT22;47773;53.174;6.614;2023-12-20T13:06:39;8.50;99.90
61841;DHT22;47773;53.174;6.614;2023-12-20T13:09:06;8.50;99.90
61841;DHT22;47773;53.174;6.614;2023-12-20T13:11:33;8.50;99.90
61841;DHT22;47773;53.174;6.614;2023-12-20T13:13:58;8.50;99.90
61841;DHT22;47773;53.174;6.614;2023-12-20T13:16:24;8.40;99.90
61841;DHT22;47773;53.174;6.614;2023-12-20T13:18:50;8.40;99.90
61841;DHT22;47773;53.174;6.614;2023-12-20T13:21:16;8.40;99.90
61841;DHT22;47773;53.174;6.614;2023-12-20T13:23:42;8.40;99.90
61841;DHT22;47773;53.174;6.614;2023-12-20T13:26:08;8.40;99.90
61841;DHT22;47773;53.174;6.614;2023-12-20T13:28:34;8.40;99.90
61841;DHT22;47773;53.174;6.614;2023-12-20T13:30:59;8.40;99.90
61841;DHT22;47773;53.174;6.614;2023-12-20T13:33:25;8.30;99.90
61841;DHT22;47773;53.174;6.614;2023-12-20T13:35:51;8.30;99.90
61841;DHT22;47773;53.174;6.614;2023-12-20T13:38:17;8.30;99.90
61841;DHT22;47773;53.174;6.614;2023-12-20T13:40:43;8.20;99.90
61841;DHT22;47773;53.174;6.614;2023-12-20T13:43:09;8.20;99.90
61841;DHT22;47773;53.174;6.614;2023-12-20T13:45:37;8.10;99.90
61841;DHT22;47773;53.174;6.614;2023-12-20T13:48:03;8.20;99.90
61841;DHT22;47773;53.174;6.614;2023-12-20T13:50:28;8.10;99.90
61841;DHT22;47773;53.174;6.614;2023-12-20T13:52:54;8.10;99.90
61841;DHT22;47773;53.174;6.614;2023-12-20T13:55:20;8.10;99.90
61841;DHT22;47773;53.174;6.614;2023-12-20T13:57:50;8.00;99.90
61841;DHT22;47773;53.174;6.614;2023-12-20T14:00:16;8.00;99.90
61841;DHT22;47773;53.174;6.614;2023-12-20T14:02:42;8.00;99.90
61841;DHT22;47773;53.174;6.614;2023-12-20T14:05:09;8.00;99.90
61841;DHT22;47773;53.174;6.614;2023-12-20T14:07:35;8.00;99.90
61841;DHT22;47773;53.174;6.614;2023-12-20T14:10:00;8.00;99.90
61841;DHT22;47773;53.174;6.614;2023-12-20T14:12:26;7.90;99.90
61841;DHT22;47773;53.174;6.614;2023-12-20T14:14:52;7.90;99.90
61841;DHT22;47773;53.174;6.614;2023-12-20T14:17:18;7.90;99.90
61841;DHT22;47773;53.174;6.614;2023-12-20T14:19:43;7.80;99.90
61841;DHT22;47773;53.174;6.614;2023-12-20T14:22:09;7.90;99.90
61841;DHT22;47773;53.174;6.614;2023-12-20T14:24:35;7.80;99.90
61841;DHT22;47773;53.174;6.614;2023-12-20T14:27:01;7.90;99.90
61841;DHT22;47773;53.174;6.614;2023-12-20T14:29:27;7.80;99.90
61841;DHT22;47773;53.174;6.614;2023-12-20T14:31:53;7.80;99.90
61841;DHT22;47773;53.174;6.614;2023-12-20T14:34:18;7.80;99.90
61841;DHT22;47773;53.174;6.614;2023-12-20T14:36:44;7.70;99.90
61841;DHT22;47773;53.174;6.614;2023-12-20T14:39:10;7.70;99.90
61841;DHT22;47773;53.174;6.614;2023-12-20T14:41:38;7.70;99.90
61841;DHT22;47773;53.174;6.614;2023-12-20T14:44:05;7.60;99.90
61841;DHT22;47773;53.174;6.614;2023-12-20T14:46:32;7.60;99.90
61841;DHT22;47773;53.174;6.614;2023-12-20T14:48:57;7.60;99.90
61841;DHT22;47773;53.174;6.614;2023-12-20T14:51:23;7.60;99.90
61841;DHT22;47773;53.174;6.614;2023-12-20T14:53:50;7.60;99.90
61841;DHT22;47773;53.174;6.614;2023-12-20T14:56:15;7.60;99.90
61841;DHT22;47773;53.174;6.614;2023-12-20T14:58:41;7.60;99.90
61841;DHT22;47773;53.174;6.614;2023-12-20T15:01:07;7.60;99.90
61841;DHT22;47773;53.174;6.614;2023-12-20T15:03:34;7.60;99.90
61841;DHT22;47773;53.174;6.614;2023-12-20T15:06:00;7.50;99.90
61841;DHT22;47773;53.174;6.614;2023-12-20T15:08:26;7.50;99.90
61841;DHT22;47773;53.174;6.614;2023-12-20T15:10:52;7.50;99.90
61841;DHT22;47773;53.174;6.614;2023-12-20T15:13:17;7.50;99.90
61841;DHT22;47773;53.174;6.614;2023-12-20T15:15:43;7.60;99.90
61841;DHT22;47773;53.174;6.614;2023-12-20T15:18:09;7.50;99.90
61841;DHT22;47773;53.174;6.614;2023-12-20T15:20:35;7.50;99.90
61841;DHT22;47773;53.174;6.614;2023-12-20T15:23:02;7.50;99.90
61841;DHT22;47773;53.174;6.614;2023-12-20T15:25:33;7.50;99.90
61841;DHT22;47773;53.174;6.614;2023-12-20T15:27:58;7.40;99.90
61841;DHT22;47773;53.174;6.614;2023-12-20T15:30:24;7.40;99.90
61841;DHT22;47773;53.174;6.614;2023-12-20T15:32:50;7.40;99.90
61841;DHT22;47773;53.174;6.614;2023-12-20T15:35:16;7.40;99.90
61841;DHT22;47773;53.174;6.614;2023-12-20T15:37:42;7.40;99.90
61841;DHT22;47773;53.174;6.614;2023-12-20T15:40:08;7.40;99.90